CMP656 MPTO-SBBR
Flight info
| Callsign | CMP656 |
|---|---|
| Flight time | N/A |
| Altitude | 35000 |
| Route | ANGUD1B ANGUD DCT DANDA DCT MUBMI UP527 EGDUK UP793 ILRIR/N0466F370 UP793 OBLIS UZ33 UTPOM DCT EGOLA DCT ELISA |
| Aircraft | B38M/M-SDE1FGHILORVWXY/HB1 |
Departure
| Time | 2026-05-06 18:42 |
|---|---|
| Airport | Tocumen International Airport (MPTO) |
Arrival
| Time | N/A |
|---|---|
| Airport | Presidente Juscelino Kubitschek International Airport (SBBR) |
| Time | Latitude | Longitude | Altitude | Speed | Heading |
|---|---|---|---|---|---|
| 2026-05-06 18:21 | 9.07011 | -79.38516 | 33 ft | 0 kts | 318° |
| 2026-05-06 18:32 | 9.06994 | -79.38502 | 33 ft | 4 kts | 327° |
| 2026-05-06 18:33 | 9.06970 | -79.38491 | 33 ft | 4 kts | 349° |
| 2026-05-06 18:33 | 9.06946 | -79.38493 | 33 ft | 4 kts | 31° |
| 2026-05-06 18:33 | 9.06936 | -79.38502 | 33 ft | 0 kts | 58° |
| 2026-05-06 18:38 | 9.06954 | -79.38474 | 33 ft | 9 kts | 51° |
| 2026-05-06 18:38 | 9.07016 | -79.38433 | 33 ft | 12 kts | 28° |
| 2026-05-06 18:39 | 9.07090 | -79.38393 | 33 ft | 13 kts | 28° |
| 2026-05-06 18:39 | 9.07174 | -79.38349 | 33 ft | 14 kts | 16° |
| 2026-05-06 18:39 | 9.07249 | -79.38401 | 33 ft | 14 kts | 302° |
| 2026-05-06 18:40 | 9.07280 | -79.38574 | 37 ft | 13 kts | 245° |
| 2026-05-06 18:40 | 9.07267 | -79.38648 | 43 ft | 8 kts | 280° |
| 2026-05-06 18:40 | 9.07282 | -79.38681 | 45 ft | 8 kts | 308° |
| 2026-05-06 18:40 | 9.07362 | -79.38682 | 50 ft | 8 kts | 30° |
| 2026-05-06 18:41 | 9.07363 | -79.38682 | 50 ft | 0 kts | 30° |
| 2026-05-06 18:41 | 9.07511 | -79.38593 | 51 ft | 64 kts | 31° |
| 2026-05-06 18:41 | 9.08121 | -79.38228 | 49 ft | 138 kts | 30° |
| 2026-05-06 18:41 | 9.09080 | -79.37605 | 271 ft | 178 kts | 38° |
| 2026-05-06 18:42 | 9.10097 | -79.36838 | 1136 ft | 186 kts | 32° |
| 2026-05-06 18:42 | 9.11162 | -79.36183 | 2313 ft | 185 kts | 39° |
| 2026-05-06 18:42 | 9.11905 | -79.35010 | 2766 ft | 218 kts | 74° |
| 2026-05-06 18:42 | 9.11866 | -79.33402 | 3394 ft | 243 kts | 105° |
| 2026-05-06 18:43 | 9.11270 | -79.31804 | 4393 ft | 244 kts | 109° |
| 2026-05-06 18:43 | 9.10679 | -79.30183 | 5311 ft | 246 kts | 109° |